Time;durP1;ratioP1;P1;durP2;ratioP2;P2;SDS_P1;SDS_P2;PMS_P1;PMS_P2;Temp;Humidity;BMP_temperature;BMP_pressure;BME280_temperature;BME280_humidity;BME280_pressure;Samples;Min_cycle;Max_cycle;Signal;HPM_P1;HPM_P2
2022/03/21 00:01:18;;;;;;;118.40;63.58;;;;;;;;;;5031680;28;20116;-72
2022/03/21 00:03:44;;;;;;;122.43;64.10;;;;;;;;;;5031985;28;20033;-72
2022/03/21 00:06:10;;;;;;;121.82;65.05;;;;;;;;;;5030969;28;20047;-72
2022/03/21 00:08:36;;;;;;;125.18;64.25;;;;;;;;;;5029545;28;20033;-72
2022/03/21 00:11:02;;;;;;;114.88;63.03;;;;;;;;;;5029245;28;20080;-72
2022/03/21 00:13:29;;;;;;;116.90;61.92;;;;;;;;;;5030386;28;20443;-73
2022/03/21 00:15:55;;;;;;;124.28;63.60;;;;;;;;;;5029258;28;20113;-72
2022/03/21 00:18:22;;;;;;;119.75;61.72;;;;;;;;;;5029919;28;20044;-72
2022/03/21 00:20:49;;;;;;;117.93;61.75;;;;;;;;;;5031074;28;20041;-72
2022/03/21 00:23:15;;;;;;;119.70;62.13;;;;;;;;;;5031194;28;20026;-72
2022/03/21 00:25:43;;;;;;;130.95;66.35;;;;;;;;;;5030869;28;20049;-72
2022/03/21 00:28:09;;;;;;;131.93;66.57;;;;;;;;;;5030643;28;20034;-72
2022/03/21 00:30:37;;;;;;;130.15;66.72;;;;;;;;;;5031192;28;20033;-72
2022/03/21 00:33:04;;;;;;;140.80;65.45;;;;;;;;;;5030889;28;20104;-72
2022/03/21 00:35:30;;;;;;;122.57;64.03;;;;;;;;;;5030868;28;20045;-72
2022/03/21 00:37:56;;;;;;;124.30;65.22;;;;;;;;;;5030524;28;20531;-72
2022/03/21 00:40:24;;;;;;;122.43;63.78;;;;;;;;;;5029723;28;20048;-72
2022/03/21 00:42:50;;;;;;;128.10;65.35;;;;;;;;;;5028333;28;20049;-71
2022/03/21 00:45:21;;;;;;;136.38;67.63;;;;;;;;;;5029893;28;20487;-72
2022/03/21 00:47:48;;;;;;;127.80;64.63;;;;;;;;;;5030373;28;20026;-71
2022/03/21 00:50:15;;;;;;;133.05;66.63;;;;;;;;;;5030414;28;20773;-71
2022/03/21 00:52:48;;;;;;;117.47;64.35;;;;;;;;;;5030166;28;20053;-71
2022/03/21 00:55:16;;;;;;;120.05;65.00;;;;;;;;;;5030362;28;20263;-71
2022/03/21 00:57:43;;;;;;;127.07;64.40;;;;;;;;;;5030790;28;20033;-72
2022/03/21 01:00:12;;;;;;;123.88;64.15;;;;;;;;;;5028678;28;20036;-73
2022/03/21 01:02:39;;;;;;;121.60;62.47;;;;;;;;;;5029880;28;20053;-72
2022/03/21 01:05:05;;;;;;;124.63;62.53;;;;;;;;;;5029716;28;20048;-73
2022/03/21 01:07:31;;;;;;;116.68;61.53;;;;;;;;;;5030157;28;20071;-72
2022/03/21 01:09:57;;;;;;;109.32;58.13;;;;;;;;;;5029992;28;20249;-72
2022/03/21 01:12:24;;;;;;;118.18;61.08;;;;;;;;;;5029859;28;20029;-73
2022/03/21 01:14:50;;;;;;;110.00;59.58;;;;;;;;;;5029860;28;20107;-73
2022/03/21 01:17:16;;;;;;;109.95;56.58;;;;;;;;;;5030865;28;20048;-72
2022/03/21 01:19:42;;;;;;;109.65;57.72;;;;;;;;;;5029381;28;20044;-72
2022/03/21 01:22:08;;;;;;;113.72;58.35;;;;;;;;;;5012585;28;20033;-72
2022/03/21 01:24:38;;;;;;;112.53;59.78;;;;;;;;;;5029214;28;20538;-73
2022/03/21 01:27:04;;;;;;;121.95;62.33;;;;;;;;;;5028327;28;20037;-72
2022/03/21 01:29:30;;;;;;;127.72;65.45;;;;;;;;;;5028498;28;20083;-73
2022/03/21 01:31:56;;;;;;;123.93;62.90;;;;;;;;;;5029806;28;20037;-73
2022/03/21 01:34:22;;;;;;;130.35;64.32;;;;;;;;;;5030081;28;20030;-73
2022/03/21 01:36:49;;;;;;;124.53;65.00;;;;;;;;;;5014890;28;20056;-72
2022/03/21 01:39:15;;;;;;;125.00;62.97;;;;;;;;;;5041191;28;20029;-71
2022/03/21 01:41:41;;;;;;;129.77;64.22;;;;;;;;;;5029549;28;20022;-72
2022/03/21 01:44:09;;;;;;;130.13;64.82;;;;;;;;;;5029288;28;20029;-72
2022/03/21 01:46:35;;;;;;;128.35;65.80;;;;;;;;;;5027689;28;20029;-71
2022/03/21 01:49:03;;;;;;;136.55;68.40;;;;;;;;;;5029131;28;20024;-72
2022/03/21 01:51:30;;;;;;;130.98;67.63;;;;;;;;;;5028948;28;20120;-71
2022/03/21 01:56:42;;;;;;;134.38;65.30;;;;;;;;;;5029974;28;20111;-72
2022/03/21 01:59:09;;;;;;;143.00;72.68;;;;;;;;;;5027869;28;20033;-73
2022/03/21 02:01:35;;;;;;;149.73;72.10;;;;;;;;;;5028992;28;20486;-72
2022/03/21 02:04:02;;;;;;;143.77;71.25;;;;;;;;;;5027827;28;20090;-72
2022/03/21 02:06:28;;;;;;;147.98;74.35;;;;;;;;;;5029266;28;20018;-72
2022/03/21 02:08:58;;;;;;;145.85;73.28;;;;;;;;;;5029230;28;20033;-72
2022/03/21 02:11:27;;;;;;;143.80;72.45;;;;;;;;;;5027494;28;20028;-72
2022/03/21 02:13:57;;;;;;;140.27;73.60;;;;;;;;;;5029020;28;20030;-73
2022/03/21 02:16:24;;;;;;;146.32;74.80;;;;;;;;;;5027624;28;20161;-72
2022/03/21 02:18:50;;;;;;;134.73;71.30;;;;;;;;;;5028515;28;20037;-73
2022/03/21 02:21:25;;;;;;;135.90;70.55;;;;;;;;;;5027432;28;20029;-73
2022/03/21 02:24:04;;;;;;;128.23;68.20;;;;;;;;;;5028320;28;20127;-73
2022/03/21 02:26:30;;;;;;;128.68;69.32;;;;;;;;;;5028634;28;20041;-73
2022/03/21 02:28:57;;;;;;;135.20;67.97;;;;;;;;;;5028797;28;20049;-73
2022/03/21 02:31:24;;;;;;;123.13;64.55;;;;;;;;;;5028321;28;20030;-73
2022/03/21 02:33:50;;;;;;;125.45;62.95;;;;;;;;;;5027354;28;20049;-72
2022/03/21 02:36:17;;;;;;;120.07;63.38;;;;;;;;;;5026999;28;20401;-71
2022/03/21 02:38:44;;;;;;;115.13;62.17;;;;;;;;;;5028587;28;20033;-71
2022/03/21 02:41:12;;;;;;;121.03;63.28;;;;;;;;;;5028195;28;20112;-72
2022/03/21 02:43:58;;;;;;;118.30;62.28;;;;;;;;;;5029644;28;20041;-72
2022/03/21 02:46:24;;;;;;;120.07;62.33;;;;;;;;;;5027410;28;20033;-72
2022/03/21 02:48:51;;;;;;;110.47;59.17;;;;;;;;;;5027086;28;20045;-71
2022/03/21 02:51:20;;;;;;;118.50;62.00;;;;;;;;;;5010774;28;20566;-72
2022/03/21 02:53:49;;;;;;;111.65;60.10;;;;;;;;;;5027896;28;20048;-72
2022/03/21 02:56:15;;;;;;;109.40;59.63;;;;;;;;;;5028417;28;20365;-72
2022/03/21 02:58:41;;;;;;;106.85;59.13;;;;;;;;;;5028201;28;20029;-72
2022/03/21 03:01:08;;;;;;;109.88;57.03;;;;;;;;;;5028171;28;20033;-72
2022/03/21 03:03:34;;;;;;;102.57;56.47;;;;;;;;;;5028513;28;20164;-72
2022/03/21 03:06:00;;;;;;;107.07;58.45;;;;;;;;;;5027697;28;20105;-72
2022/03/21 03:08:26;;;;;;;110.97;58.75;;;;;;;;;;5026647;28;20099;-71
2022/03/21 03:10:52;;;;;;;107.65;58.03;;;;;;;;;;5026432;28;20072;-71
2022/03/21 03:13:18;;;;;;;110.32;59.05;;;;;;;;;;5028530;28;20494;-72
2022/03/21 03:15:44;;;;;;;110.80;58.53;;;;;;;;;;5028979;28;20045;-72
2022/03/21 03:18:10;;;;;;;106.75;56.38;;;;;;;;;;5031836;28;20065;-72
2022/03/21 03:20:37;;;;;;;114.35;59.13;;;;;;;;;;5031847;28;20033;-72
2022/03/21 03:23:03;;;;;;;109.13;58.72;;;;;;;;;;5032705;28;20033;-72
2022/03/21 03:25:30;;;;;;;115.55;60.97;;;;;;;;;;5030712;28;20046;-72
2022/03/21 03:27:57;;;;;;;115.85;60.45;;;;;;;;;;5031336;28;20124;-73
2022/03/21 03:30:24;;;;;;;118.07;62.47;;;;;;;;;;5030785;28;20053;-73
2022/03/21 03:32:51;;;;;;;116.18;62.75;;;;;;;;;;5031427;28;20104;-72
2022/03/21 03:35:17;;;;;;;117.30;60.80;;;;;;;;;;5032123;28;20116;-73
2022/03/21 03:37:43;;;;;;;118.75;62.42;;;;;;;;;;5031788;28;20029;-72
2022/03/21 03:40:09;;;;;;;117.95;61.53;;;;;;;;;;5028797;28;20038;-72
2022/03/21 03:42:36;;;;;;;112.63;59.35;;;;;;;;;;5031438;28;20037;-72
2022/03/21 03:45:02;;;;;;;121.05;62.10;;;;;;;;;;5031806;28;20034;-73
2022/03/21 03:47:28;;;;;;;119.18;62.80;;;;;;;;;;5031415;28;20478;-72
2022/03/21 03:49:54;;;;;;;120.57;62.83;;;;;;;;;;5030569;28;20025;-73
2022/03/21 03:52:20;;;;;;;125.50;63.25;;;;;;;;;;5030779;28;20064;-71
2022/03/21 03:54:46;;;;;;;116.68;61.53;;;;;;;;;;5030367;28;20513;-72
2022/03/21 03:57:12;;;;;;;119.78;62.58;;;;;;;;;;5030964;28;20053;-72
2022/03/21 03:59:38;;;;;;;119.80;60.47;;;;;;;;;;5028473;28;20038;-72
2022/03/21 04:02:04;;;;;;;120.78;63.05;;;;;;;;;;5031850;28;20025;-72
2022/03/21 04:04:30;;;;;;;117.18;62.47;;;;;;;;;;5031283;28;20036;-72
2022/03/21 04:06:56;;;;;;;122.82;62.85;;;;;;;;;;5029792;28;20037;-71
2022/03/21 04:09:22;;;;;;;123.72;62.78;;;;;;;;;;5031342;28;20032;-72
2022/03/21 04:11:48;;;;;;;118.30;63.42;;;;;;;;;;5031511;28;20051;-72
2022/03/21 04:14:14;;;;;;;119.15;62.22;;;;;;;;;;5030367;28;20036;-73
2022/03/21 04:16:44;;;;;;;123.13;64.75;;;;;;;;;;5031252;28;20025;-72
2022/03/21 04:19:10;;;;;;;129.18;65.82;;;;;;;;;;5029811;28;20427;-72
2022/03/21 04:21:36;;;;;;;118.65;62.53;;;;;;;;;;5029560;28;20034;-72
2022/03/21 04:24:02;;;;;;;124.40;64.35;;;;;;;;;;5028985;28;20030;-72
2022/03/21 04:26:28;;;;;;;127.10;64.68;;;;;;;;;;5029703;28;20046;-72
2022/03/21 04:28:58;;;;;;;122.47;64.72;;;;;;;;;;5030780;28;20060;-71
2022/03/21 04:31:24;;;;;;;120.07;65.30;;;;;;;;;;5029898;28;20029;-71
2022/03/21 04:33:50;;;;;;;132.20;68.05;;;;;;;;;;5031398;28;20022;-71
2022/03/21 04:36:19;;;;;;;128.40;64.80;;;;;;;;;;5030614;28;20025;-72
2022/03/21 04:38:45;;;;;;;127.25;67.07;;;;;;;;;;5029508;28;20049;-72
2022/03/21 04:41:11;;;;;;;122.57;65.15;;;;;;;;;;5029770;28;20057;-70
2022/03/21 04:43:37;;;;;;;121.60;64.20;;;;;;;;;;5030327;28;20101;-72
2022/03/21 04:46:05;;;;;;;126.05;66.82;;;;;;;;;;5029568;28;20060;-72
2022/03/21 04:48:31;;;;;;;132.35;68.35;;;;;;;;;;5030477;28;20365;-73
2022/03/21 04:50:57;;;;;;;123.05;64.03;;;;;;;;;;5030693;28;20033;-72
2022/03/21 04:53:23;;;;;;;122.65;64.95;;;;;;;;;;5030716;28;20037;-73
2022/03/21 04:55:49;;;;;;;133.00;67.88;;;;;;;;;;5029455;28;20069;-73
2022/03/21 04:58:16;;;;;;;122.25;63.55;;;;;;;;;;5029156;28;20030;-72
2022/03/21 05:00:44;;;;;;;130.93;67.15;;;;;;;;;;5028489;28;20117;-71
2022/03/21 05:03:10;;;;;;;130.23;66.38;;;;;;;;;;5030779;28;20041;-73
2022/03/21 05:05:36;;;;;;;123.03;65.55;;;;;;;;;;5012385;28;20032;-72
2022/03/21 05:08:03;;;;;;;129.75;65.55;;;;;;;;;;5030357;28;20041;-73
2022/03/21 05:10:30;;;;;;;130.55;65.90;;;;;;;;;;5028036;28;20056;-72
2022/03/21 05:12:57;;;;;;;125.32;65.00;;;;;;;;;;5030529;28;20510;-72
2022/03/21 05:15:23;;;;;;;126.88;64.82;;;;;;;;;;5029451;28;20079;-72
2022/03/21 05:17:51;;;;;;;127.72;65.57;;;;;;;;;;5029589;28;20580;-72
2022/03/21 05:20:17;;;;;;;124.22;64.90;;;;;;;;;;5029239;28;20029;-72
2022/03/21 05:30:57;;;;;;;133.73;64.82;;;;;;;;;;5029413;28;20409;-71
2022/03/21 05:31:04;;;;;;;124.55;65.20;;;;;;;;;;5030278;28;20125;-72
2022/03/21 05:36:18;;;;;;;130.57;66.25;;;;;;;;;;5030126;28;20056;-72
2022/03/21 05:38:44;;;;;;;130.00;66.70;;;;;;;;;;5030120;28;20028;-72
2022/03/21 05:41:12;;;;;;;135.07;67.00;;;;;;;;;;5029338;28;20400;-72
2022/03/21 05:43:38;;;;;;;154.30;69.03;;;;;;;;;;5030198;28;20527;-72
2022/03/21 05:46:05;;;;;;;131.48;66.25;;;;;;;;;;5026183;28;20442;-72
2022/03/21 05:51:16;;;;;;;133.75;68.25;;;;;;;;;;5029515;28;20395;-72
2022/03/21 05:53:45;;;;;;;134.02;68.82;;;;;;;;;;5028947;28;20026;-72
2022/03/21 05:56:12;;;;;;;137.93;71.75;;;;;;;;;;5029736;28;20021;-72
2022/03/21 05:58:39;;;;;;;132.77;65.30;;;;;;;;;;5029766;28;20060;-73
2022/03/21 06:01:06;;;;;;;144.50;69.88;;;;;;;;;;5028939;28;20021;-72
2022/03/21 06:03:32;;;;;;;137.02;66.97;;;;;;;;;;5028781;28;20026;-73
2022/03/21 06:05:59;;;;;;;142.10;70.07;;;;;;;;;;5028756;28;20233;-73
2022/03/21 06:08:25;;;;;;;145.23;69.75;;;;;;;;;;5029427;28;20080;-72
2022/03/21 06:11:03;;;;;;;137.63;68.13;;;;;;;;;;5028603;28;20037;-72
2022/03/21 06:13:31;;;;;;;135.52;68.68;;;;;;;;;;5027306;28;20037;-70
2022/03/21 06:15:57;;;;;;;140.65;67.40;;;;;;;;;;5027735;28;20104;-72
2022/03/21 06:18:23;;;;;;;142.88;67.65;;;;;;;;;;5027343;28;21914;-72
2022/03/21 06:20:49;;;;;;;133.38;67.90;;;;;;;;;;5028476;28;20037;-73
2022/03/21 06:23:15;;;;;;;136.50;64.97;;;;;;;;;;5029478;28;20032;-73
2022/03/21 06:25:41;;;;;;;124.43;64.10;;;;;;;;;;5027761;28;20560;-72
2022/03/21 06:28:08;;;;;;;126.28;66.72;;;;;;;;;;5028510;28;20031;-72
2022/03/21 06:30:34;;;;;;;118.75;61.67;;;;;;;;;;5011374;28;20033;-73
2022/03/21 06:33:00;;;;;;;118.22;60.75;;;;;;;;;;5029002;28;20042;-74
2022/03/21 06:35:26;;;;;;;113.85;60.63;;;;;;;;;;5027282;28;20044;-73
2022/03/21 06:37:52;;;;;;;117.72;58.08;;;;;;;;;;5029414;28;20042;-71
2022/03/21 06:40:18;;;;;;;101.80;54.03;;;;;;;;;;5028143;28;20030;-73
2022/03/21 06:42:44;;;;;;;99.90;54.47;;;;;;;;;;5026554;28;20034;-72
2022/03/21 06:45:10;;;;;;;84.53;48.83;;;;;;;;;;5027908;28;20402;-72
2022/03/21 06:47:36;;;;;;;87.03;47.88;;;;;;;;;;5010982;28;20048;-72
2022/03/21 06:50:03;;;;;;;81.78;47.08;;;;;;;;;;5025431;28;20029;-72
2022/03/21 06:52:29;;;;;;;87.50;47.20;;;;;;;;;;5027280;28;20034;-72
2022/03/21 06:54:55;;;;;;;77.70;45.38;;;;;;;;;;5024344;28;20098;-73
2022/03/21 06:57:21;;;;;;;80.97;45.13;;;;;;;;;;5028561;28;20474;-73
2022/03/21 06:59:48;;;;;;;74.32;42.83;;;;;;;;;;5027356;28;20132;-73
2022/03/21 07:02:15;;;;;;;70.60;41.28;;;;;;;;;;5024919;28;20029;-73
2022/03/21 07:04:42;;;;;;;75.57;41.28;;;;;;;;;;5028494;28;20048;-73
2022/03/21 07:07:08;;;;;;;69.90;41.95;;;;;;;;;;5029414;28;20033;-73
2022/03/21 07:09:34;;;;;;;79.40;43.17;;;;;;;;;;5011304;28;20494;-73
2022/03/21 07:12:00;;;;;;;88.55;46.90;;;;;;;;;;5025615;28;20025;-74
2022/03/21 07:14:26;;;;;;;81.85;43.75;;;;;;;;;;5026194;28;20116;-73
2022/03/21 07:16:52;;;;;;;215.32;130.18;;;;;;;;;;5026165;28;20037;-73
2022/03/21 07:19:18;;;;;;;76.05;45.58;;;;;;;;;;5026232;28;20036;-73
2022/03/21 07:21:44;;;;;;;67.97;39.65;;;;;;;;;;5023450;28;20132;-73
2022/03/21 07:24:12;;;;;;;83.00;45.78;;;;;;;;;;5024605;28;20112;-71
2022/03/21 07:26:39;;;;;;;84.93;52.95;;;;;;;;;;5024971;28;20042;-72
2022/03/21 07:29:06;;;;;;;68.03;40.42;;;;;;;;;;5025566;28;20112;-71
2022/03/21 07:31:32;;;;;;;65.82;37.15;;;;;;;;;;5025266;28;20034;-72
2022/03/21 07:33:58;;;;;;;66.65;38.38;;;;;;;;;;5027856;28;20049;-72
2022/03/21 07:36:25;;;;;;;63.70;37.47;;;;;;;;;;5026224;28;20045;-73
2022/03/21 07:38:51;;;;;;;56.53;34.40;;;;;;;;;;5027040;28;20029;-72
2022/03/21 07:41:17;;;;;;;62.20;32.85;;;;;;;;;;5026013;28;20073;-73
2022/03/21 07:43:43;;;;;;;58.63;34.25;;;;;;;;;;5026409;28;20079;-73
2022/03/21 07:48:54;;;;;;;52.67;31.35;;;;;;;;;;5027167;28;20510;-72
2022/03/21 07:51:20;;;;;;;50.08;30.17;;;;;;;;;;5025437;28;20048;-72
2022/03/21 07:53:46;;;;;;;52.60;29.75;;;;;;;;;;5024941;28;20041;-72
2022/03/21 07:56:12;;;;;;;51.78;29.92;;;;;;;;;;5024635;28;20145;-72
2022/03/21 07:58:38;;;;;;;46.35;28.40;;;;;;;;;;5019750;28;20030;-72
2022/03/21 08:01:06;;;;;;;51.55;29.35;;;;;;;;;;5026194;28;20029;-73
2022/03/21 08:03:32;;;;;;;45.00;27.23;;;;;;;;;;5026956;28;20141;-73
2022/03/21 08:05:59;;;;;;;44.33;28.40;;;;;;;;;;5030776;28;20033;-72
2022/03/21 08:08:25;;;;;;;54.63;29.20;;;;;;;;;;5030703;28;20048;-73
2022/03/21 08:10:51;;;;;;;43.95;25.38;;;;;;;;;;5029117;28;20045;-73
2022/03/21 08:13:19;;;;;;;44.63;26.60;;;;;;;;;;5030208;28;20041;-71
2022/03/21 08:15:45;;;;;;;41.35;24.92;;;;;;;;;;5031026;28;20025;-73
2022/03/21 08:18:15;;;;;;;37.80;24.23;;;;;;;;;;5031085;28;20396;-73
2022/03/21 08:20:43;;;;;;;34.70;21.13;;;;;;;;;;5029624;28;20041;-73
2022/03/21 08:23:13;;;;;;;37.40;22.15;;;;;;;;;;5030516;28;20056;-73
2022/03/21 08:25:40;;;;;;;44.97;23.30;;;;;;;;;;5029498;28;20116;-73
2022/03/21 08:28:07;;;;;;;39.42;22.05;;;;;;;;;;5031228;28;20029;-72
2022/03/21 08:30:35;;;;;;;34.95;21.25;;;;;;;;;;5030069;28;20036;-73
2022/03/21 08:33:02;;;;;;;32.63;19.95;;;;;;;;;;5018419;28;20030;-74
2022/03/21 08:35:28;;;;;;;35.70;21.38;;;;;;;;;;5011253;28;20105;-75
2022/03/21 08:37:54;;;;;;;39.08;23.75;;;;;;;;;;5029028;28;20029;-73
2022/03/21 08:40:20;;;;;;;35.90;21.55;;;;;;;;;;5031211;28;20152;-72
2022/03/21 08:42:47;;;;;;;37.03;22.30;;;;;;;;;;5029885;28;20029;-73
2022/03/21 08:45:15;;;;;;;35.38;20.98;;;;;;;;;;5027963;28;20022;-72
2022/03/21 08:47:42;;;;;;;32.70;21.85;;;;;;;;;;5030266;28;20043;-72
2022/03/21 08:50:09;;;;;;;37.63;22.10;;;;;;;;;;5029801;28;20040;-72
2022/03/21 08:52:35;;;;;;;38.13;21.15;;;;;;;;;;5029167;28;20025;-72
2022/03/21 08:55:01;;;;;;;34.95;21.70;;;;;;;;;;5030028;28;20391;-71
2022/03/21 08:57:28;;;;;;;36.85;21.08;;;;;;;;;;5028194;28;20021;-72
2022/03/21 08:59:54;;;;;;;37.97;22.05;;;;;;;;;;5028531;28;20120;-73
2022/03/21 09:02:23;;;;;;;36.30;23.30;;;;;;;;;;5028930;28;20106;-73
2022/03/21 09:04:50;;;;;;;33.88;22.35;;;;;;;;;;5029379;28;20036;-73
2022/03/21 09:07:16;;;;;;;33.58;21.65;;;;;;;;;;5029801;28;20036;-72
2022/03/21 09:09:42;;;;;;;32.88;21.75;;;;;;;;;;5009897;28;20068;-73
2022/03/21 09:12:09;;;;;;;36.40;23.30;;;;;;;;;;5027018;28;20029;-73
2022/03/21 09:14:38;;;;;;;42.90;21.77;;;;;;;;;;5011031;28;20029;-72
2022/03/21 09:17:04;;;;;;;37.35;21.92;;;;;;;;;;5027542;28;20037;-71
2022/03/21 09:19:31;;;;;;;32.70;21.40;;;;;;;;;;5026631;28;20427;-71
2022/03/21 09:21:57;;;;;;;33.85;21.85;;;;;;;;;;5025423;28;20503;-72
2022/03/21 09:24:23;;;;;;;34.08;22.55;;;;;;;;;;5027136;28;20026;-71
2022/03/21 09:26:50;;;;;;;34.97;21.15;;;;;;;;;;5027443;28;20080;-72
2022/03/21 09:29:16;;;;;;;35.15;22.50;;;;;;;;;;5027876;28;20049;-73
2022/03/21 09:31:42;;;;;;;33.72;21.67;;;;;;;;;;5027859;28;20025;-73
2022/03/21 09:34:09;;;;;;;32.35;22.15;;;;;;;;;;5027621;28;20087;-72
2022/03/21 09:36:35;;;;;;;38.63;22.38;;;;;;;;;;5026148;28;20036;-72
2022/03/21 09:39:01;;;;;;;33.50;20.70;;;;;;;;;;5027757;28;20033;-73
2022/03/21 09:41:29;;;;;;;31.25;21.17;;;;;;;;;;5028775;28;20034;-73
2022/03/21 09:44:10;;;;;;;34.40;22.35;;;;;;;;;;5028053;28;20025;-72
2022/03/21 09:46:39;;;;;;;35.83;22.30;;;;;;;;;;5038460;28;20118;-73
2022/03/21 09:49:06;;;;;;;36.05;22.00;;;;;;;;;;5027078;28;20032;-72
2022/03/21 09:51:32;;;;;;;32.63;22.23;;;;;;;;;;5010071;28;20053;-72
2022/03/21 09:54:00;;;;;;;30.00;20.27;;;;;;;;;;5024033;28;20048;-73
2022/03/21 09:56:26;;;;;;;29.85;20.90;;;;;;;;;;5027988;28;20025;-71
2022/03/21 09:58:59;;;;;;;31.50;21.23;;;;;;;;;;5027515;28;20506;-71
2022/03/21 10:01:25;;;;;;;30.60;21.67;;;;;;;;;;5026021;28;20034;-72
2022/03/21 10:03:52;;;;;;;32.13;20.08;;;;;;;;;;5028977;28;20517;-72
2022/03/21 10:06:31;;;;;;;32.65;21.42;;;;;;;;;;5027786;28;20026;-74
2022/03/21 10:09:03;;;;;;;32.25;21.10;;;;;;;;;;5024636;28;20360;-73
2022/03/21 10:11:29;;;;;;;32.15;21.33;;;;;;;;;;5027249;28;20033;-71
2022/03/21 10:13:55;;;;;;;34.90;21.20;;;;;;;;;;5025973;28;20021;-72
2022/03/21 10:16:21;;;;;;;34.47;21.48;;;;;;;;;;5028491;28;20040;-72
2022/03/21 10:18:54;;;;;;;30.95;20.00;;;;;;;;;;5028074;28;20033;-72
2022/03/21 10:21:21;;;;;;;33.10;20.75;;;;;;;;;;5028076;28;20107;-73
2022/03/21 10:24:07;;;;;;;30.67;19.48;;;;;;;;;;5025460;28;20390;-72
2022/03/21 10:26:41;;;;;;;29.30;19.02;;;;;;;;;;5027816;28;20068;-73
2022/03/21 10:29:10;;;;;;;26.80;18.00;;;;;;;;;;4989346;28;20136;-73
2022/03/21 10:31:46;;;;;;;29.13;19.75;;;;;;;;;;5010138;28;20457;-72
2022/03/21 10:34:16;;;;;;;25.73;17.85;;;;;;;;;;5027537;28;20021;-72
2022/03/21 10:37:01;;;;;;;28.08;18.10;;;;;;;;;;5027681;28;20026;-73
2022/03/21 10:39:28;;;;;;;29.27;17.70;;;;;;;;;;5027002;28;20136;-72
2022/03/21 10:42:05;;;;;;;30.52;17.73;;;;;;;;;;5027698;28;20172;-72
2022/03/21 10:44:32;;;;;;;23.58;15.30;;;;;;;;;;5027186;28;20053;-72
2022/03/21 10:47:00;;;;;;;34.35;18.98;;;;;;;;;;5023966;28;20325;-73
2022/03/21 10:49:33;;;;;;;30.52;18.15;;;;;;;;;;5026339;28;20037;-73
2022/03/21 10:52:00;;;;;;;24.40;15.95;;;;;;;;;;5025011;28;20431;-73
2022/03/21 10:54:35;;;;;;;26.23;18.02;;;;;;;;;;5028473;28;20041;-72
2022/03/21 10:57:02;;;;;;;28.90;17.77;;;;;;;;;;5019535;28;20125;-72
2022/03/21 10:59:28;;;;;;;26.50;17.73;;;;;;;;;;5028640;28;20021;-72
2022/03/21 11:02:13;;;;;;;27.88;17.00;;;;;;;;;;5028175;28;20084;-72
2022/03/21 11:04:41;;;;;;;23.70;16.25;;;;;;;;;;5027946;28;20034;-73
2022/03/21 11:07:11;;;;;;;23.88;16.55;;;;;;;;;;5026853;28;20065;-73
2022/03/21 11:09:37;;;;;;;33.30;18.35;;;;;;;;;;5028101;28;20121;-72
2022/03/21 11:12:05;;;;;;;28.33;17.95;;;;;;;;;;5028338;28;20029;-72
2022/03/21 11:14:31;;;;;;;25.23;17.23;;;;;;;;;;5028530;28;20033;-71
2022/03/21 11:16:59;;;;;;;25.02;16.83;;;;;;;;;;5026736;28;20037;-71
2022/03/21 11:19:25;;;;;;;26.15;16.58;;;;;;;;;;5026684;28;20029;-71
2022/03/21 11:21:52;;;;;;;23.73;15.45;;;;;;;;;;5027695;28;20034;-72
2022/03/21 11:24:18;;;;;;;27.55;17.10;;;;;;;;;;5025655;28;20037;-73
2022/03/21 11:26:52;;;;;;;26.67;17.25;;;;;;;;;;5028111;28;20183;-72
2022/03/21 11:29:41;;;;;;;28.77;18.38;;;;;;;;;;5027948;28;20124;-72
2022/03/21 11:32:07;;;;;;;26.10;16.85;;;;;;;;;;5028430;28;20434;-72
2022/03/21 11:34:52;;;;;;;27.58;16.50;;;;;;;;;;5027777;28;20038;-73
2022/03/21 11:37:31;;;;;;;28.33;16.33;;;;;;;;;;5011920;28;20022;-73
2022/03/21 11:40:15;;;;;;;33.38;16.75;;;;;;;;;;5020070;28;20030;-71
2022/03/21 11:42:41;;;;;;;26.63;15.23;;;;;;;;;;5031651;28;20091;-73
2022/03/21 11:45:23;;;;;;;30.35;16.88;;;;;;;;;;5031277;28;20033;-72
2022/03/21 11:47:49;;;;;;;24.92;16.00;;;;;;;;;;5030494;28;20037;-72
2022/03/21 11:50:25;;;;;;;27.67;16.45;;;;;;;;;;5029647;28;20172;-72
2022/03/21 11:53:10;;;;;;;30.00;17.17;;;;;;;;;;5031438;28;20065;-72
2022/03/21 11:55:37;;;;;;;23.85;16.00;;;;;;;;;;5032039;28;20163;-73
2022/03/21 11:58:26;;;;;;;25.40;16.80;;;;;;;;;;5031621;28;20026;-72
2022/03/21 12:01:02;;;;;;;28.23;17.20;;;;;;;;;;5022236;28;20053;-71
2022/03/21 12:03:28;;;;;;;22.98;15.93;;;;;;;;;;5030493;28;20037;-72
2022/03/21 12:05:54;;;;;;;30.92;15.85;;;;;;;;;;5031883;28;20072;-72
2022/03/21 12:08:30;;;;;;;24.55;16.55;;;;;;;;;;5031239;28;20059;-70
2022/03/21 12:10:56;;;;;;;25.02;16.50;;;;;;;;;;5029462;28;20090;-71
2022/03/21 12:13:22;;;;;;;23.67;16.10;;;;;;;;;;5030876;28;20128;-73
2022/03/21 12:15:52;;;;;;;24.27;17.00;;;;;;;;;;5030400;28;20028;-72
2022/03/21 12:18:19;;;;;;;28.13;17.07;;;;;;;;;;5031507;28;20056;-72
2022/03/21 12:20:51;;;;;;;28.35;17.50;;;;;;;;;;5030771;28;20301;-73
2022/03/21 12:23:23;;;;;;;29.27;16.63;;;;;;;;;;5030127;28;20044;-72
2022/03/21 12:25:51;;;;;;;24.00;16.23;;;;;;;;;;5030003;28;20041;-72
2022/03/21 12:28:17;;;;;;;28.67;17.63;;;;;;;;;;5030828;28;20037;-72
2022/03/21 12:30:48;;;;;;;31.17;17.40;;;;;;;;;;5029078;28;20033;-72
2022/03/21 12:33:14;;;;;;;29.25;17.35;;;;;;;;;;5026241;28;20021;-72
2022/03/21 12:35:42;;;;;;;23.55;17.33;;;;;;;;;;5025279;28;20092;-72
2022/03/21 12:38:10;;;;;;;25.15;17.73;;;;;;;;;;5027459;28;20035;-72
2022/03/21 12:40:40;;;;;;;28.08;17.75;;;;;;;;;;5030600;28;20040;-72
2022/03/21 12:43:06;;;;;;;25.30;17.30;;;;;;;;;;5030585;28;20520;-72
2022/03/21 12:45:32;;;;;;;27.52;17.52;;;;;;;;;;5027408;28;20033;-72
2022/03/21 12:48:08;;;;;;;26.17;17.45;;;;;;;;;;5032191;28;20478;-72
2022/03/21 12:50:35;;;;;;;27.38;17.77;;;;;;;;;;5031196;28;20025;-74
2022/03/21 12:53:06;;;;;;;33.97;17.90;;;;;;;;;;5022550;28;20087;-73
2022/03/21 12:55:33;;;;;;;35.08;18.17;;;;;;;;;;5031521;28;20025;-74
2022/03/21 12:58:00;;;;;;;34.08;18.25;;;;;;;;;;5033009;28;20266;-73
2022/03/21 13:00:27;;;;;;;31.73;18.20;;;;;;;;;;5031847;28;20028;-76
2022/03/21 13:02:55;;;;;;;28.52;18.45;;;;;;;;;;5031475;28;20043;-73
2022/03/21 13:10:54;;;;;;;34.88;18.15;;;;;;;;;;5031438;28;20072;-74
2022/03/21 13:13:20;;;;;;;27.42;18.10;;;;;;;;;;5031796;28;20083;-73
2022/03/21 13:15:46;;;;;;;25.67;18.35;;;;;;;;;;5031322;28;20037;-72
2022/03/21 13:18:12;;;;;;;27.23;16.85;;;;;;;;;;5028014;28;20037;-72
2022/03/21 13:20:41;;;;;;;28.98;18.48;;;;;;;;;;5028203;28;20124;-72
2022/03/21 13:23:07;;;;;;;31.27;19.17;;;;;;;;;;5029883;28;20025;-72
2022/03/21 13:25:38;;;;;;;28.98;18.30;;;;;;;;;;5028909;28;20056;-73
2022/03/21 13:28:16;;;;;;;26.73;16.85;;;;;;;;;;5028778;28;20124;-74
2022/03/21 13:30:55;;;;;;;31.70;19.50;;;;;;;;;;5031462;28;20091;-74
2022/03/21 13:33:22;;;;;;;28.95;17.10;;;;;;;;;;5029279;28;20029;-73
2022/03/21 13:35:52;;;;;;;27.88;17.77;;;;;;;;;;5022855;28;20080;-74
2022/03/21 13:38:21;;;;;;;35.20;17.58;;;;;;;;;;5028654;28;20029;-72
2022/03/21 13:40:47;;;;;;;26.15;16.55;;;;;;;;;;5029582;28;20065;-75
2022/03/21 13:43:20;;;;;;;29.65;17.98;;;;;;;;;;5029971;28;20418;-75
2022/03/21 13:45:46;;;;;;;29.58;17.77;;;;;;;;;;5028633;28;20120;-72
2022/03/21 13:48:30;;;;;;;28.17;18.33;;;;;;;;;;5030139;28;20033;-74
2022/03/21 13:51:00;;;;;;;34.58;17.70;;;;;;;;;;5030110;28;20057;-73
2022/03/21 13:53:27;;;;;;;34.75;18.25;;;;;;;;;;5029310;28;20487;-73
2022/03/21 13:55:53;;;;;;;29.52;18.42;;;;;;;;;;5030484;28;20087;-74
2022/03/21 13:58:27;;;;;;;31.67;20.20;;;;;;;;;;5027820;28;20029;-74
2022/03/21 14:00:53;;;;;;;27.60;18.33;;;;;;;;;;5029976;28;20033;-75
2022/03/21 14:03:36;;;;;;;28.45;18.90;;;;;;;;;;5028429;28;20036;-74
2022/03/21 14:06:06;;;;;;;26.75;18.90;;;;;;;;;;5030543;28;20582;-74
2022/03/21 14:08:32;;;;;;;28.92;19.30;;;;;;;;;;5030048;28;20037;-74
2022/03/21 14:11:17;;;;;;;33.65;18.80;;;;;;;;;;5030191;28;20040;-73
2022/03/21 14:13:46;;;;;;;32.20;18.05;;;;;;;;;;5030428;28;20033;-73
2022/03/21 14:16:13;;;;;;;30.65;20.08;;;;;;;;;;5031197;28;20104;-73
2022/03/21 14:18:40;;;;;;;33.05;20.35;;;;;;;;;;5028308;28;20585;-74
2022/03/21 14:21:08;;;;;;;26.55;19.73;;;;;;;;;;5029388;28;20582;-75
2022/03/21 14:23:35;;;;;;;30.15;19.27;;;;;;;;;;5023585;28;20052;-73
2022/03/21 14:28:46;;;;;;;31.45;20.98;;;;;;;;;;5029675;28;20048;-74
2022/03/21 14:31:13;;;;;;;32.72;21.52;;;;;;;;;;5030344;28;20029;-74
2022/03/21 14:33:39;;;;;;;33.28;21.90;;;;;;;;;;5029871;28;20040;-75
2022/03/21 14:36:06;;;;;;;32.00;20.60;;;;;;;;;;5030211;28;20025;-74
2022/03/21 14:38:33;;;;;;;34.78;20.60;;;;;;;;;;5029415;28;20088;-74
2022/03/21 14:40:59;;;;;;;34.63;20.23;;;;;;;;;;5012091;28;20040;-75